• Join FlightAware (Why Join?)
  • Login
  • US Flag 
07:54AM EST


 

Airport Tracker/Info


-or-


 

Live Flight TrackerFlight Track Log ✈ UPS3608 ✈ 27-Apr-2013 ✈ KSDF - KORD

Flight Track Log - Related Links

Times and Time Zones

All times are in EDT time to prevent confusion due to time zone crossing. See the UPS3608 flight status page for this flight to view local times or setup timezone preferences in your user account.

Time Position Orientation Groundspeed Altitude Reporting Facility
EDT Latitude Longitude Course Direction KTS MPH feet Rate Location/Type
08:06AM 38.1700 -85.7430 159° South 157 181 200  Level FlightAware
08:06AM 38.1510 -85.7370 166° South 161 185 1,600 2,280 Climbing FlightAware
08:07AM 38.1270 -85.7320 171° South 206 237 2,300 720 Climbing FlightAware
08:07AM 38.1050 -85.7300 176° South 206 237 2,300 2,580 Level FlightAware
08:08AM 38.0710 -85.7510 206° Southwest 252 290 4,700 3,960 Climbing FlightAware
08:08AM 38.0640 -85.7690 244° Southwest 258 297 5,300 3,180 Climbing FlightAware
08:08AM 38.0650 -85.7950 273° West 265 305 6,300 3,600 Climbing FlightAware
08:09AM 38.0730 -85.8400 283° West 264 304 8,000 3,000 Climbing FlightAware
08:09AM 38.0870 -85.8710 300° West 277 319 9,100 2,820 Climbing FlightAware
08:09AM 38.1050 -85.8850 329° Northwest 288 331 9,900 2,040 Climbing FlightAware
08:10AM 38.1620 -85.8970 351° North 335 386 11,000 2,160 Climbing FlightAware
08:11AM 38.2340 -85.9100 352° North 370 426 13,000 3,120 Climbing FlightAware
08:11AM 38.3050 -85.9240 351° North 383 441 15,500 3,840 Climbing FlightAware
08:12AM 38.3850 -85.9390 352° North 387 445 18,500 3,600 Climbing FlightAware
08:13AM 38.4550 -85.9530 351° North 398 458 20,600 2,880 Climbing FlightAware
08:13AM 38.5290 -85.9670 352° North 413 475 22,400 2,580 Climbing FlightAware
08:14AM 38.6220 -85.9840 352° North 431 496 24,300 1,800 Climbing FlightAware
08:15AM 38.6940 -85.9980 351° North 382 440 25,000 480 Climbing FlightAware
08:16AM 38.7660 -86.0100 353° North 361 415 25,000  Level FlightAware
08:16AM 38.8370 -86.0020 North 367 422 25,000  Level FlightAware
08:17AM 38.9050 -85.9890 North 371 427 25,000  Level FlightAware
08:18AM 38.9690 -85.9760 North 373 429 25,000  Level FlightAware
08:18AM 39.0520 -85.9600 North 374 430 25,000  Level FlightAware
08:19AM 39.1320 -85.9450 North 378 435 25,000  Level FlightAware
08:20AM 39.2450 -85.9240 North 413 475 25,000  Level FlightAware
08:21AM 39.3350 -85.9060 North 411 473 25,000  Level FlightAware
08:22AM 39.4150 -85.8910 North 410 472 25,000  Level FlightAware
08:22AM 39.4880 -85.8770 North 408 470 25,000  Level FlightAware
08:23AM 39.5720 -85.8600 North 403 464 25,000  Level FlightAware
08:24AM 39.6470 -85.8460 North 401 461 25,000  Level FlightAware
08:24AM 39.7230 -85.8310 North 399 459 25,000  Level FlightAware
08:25AM 39.8030 -85.8150 North 398 458 25,000  Level FlightAware
08:26AM 39.8830 -85.8000 North 397 457 25,000  Level FlightAware
08:26AM 39.9410 -85.7880 North 395 455 25,000  Level FlightAware
08:27AM 40.0280 -85.7710 North 394 453 25,000  Level FlightAware
08:28AM 40.1120 -85.7550 North 394 453 25,000 -240 Level FlightAware
08:29AM 40.1820 -85.7410 North 393 452 24,700 -720 Descending FlightAware
08:29AM 40.2620 -85.7250 North 389 448 24,000 -540 Descending FlightAware
08:30AM 40.3320 -85.7110 North 391 450 24,000  Level FlightAware
08:31AM 40.4060 -85.6960 North 392 451 24,000  Level FlightAware
08:31AM 40.4670 -85.6850 North 392 451 24,000  Level FlightAware
08:32AM 40.5580 -85.7030 351° North 386 444 24,000  Level FlightAware
08:33AM 40.6290 -85.7310 343° North 387 445 24,000 -480 Level FlightAware
08:34AM 40.7070 -85.7620 343° North 397 457 23,400 -1,140 Descending FlightAware
08:34AM 40.7670 -85.8150 326° Northwest 400 460 22,400 -1,140 Descending FlightAware
08:35AM 40.8120 -85.9100 302° West 399 459 21,800 -780 Descending FlightAware
08:36AM 40.8480 -85.9910 300° West 398 458 21,300 -600 Descending FlightAware
08:36AM 40.8840 -86.0740 300° West 395 455 21,000 -240 Descending FlightAware
08:37AM 40.9250 -86.1690 300° West 396 456 21,000  Level FlightAware
08:38AM 40.9620 -86.2540 300° West 397 457 21,000  Level FlightAware
08:38AM 41.0040 -86.3510 300° West 400 460 21,000  Level FlightAware
08:39AM 41.0410 -86.4370 300° West 400 460 21,000  Level FlightAware
08:40AM 41.0780 -86.5230 300° West 402 463 21,000 -120 Level FlightAware
08:41AM 41.1190 -86.6180 300° West 402 463 20,900 -960 Descending FlightAware
08:41AM 41.1550 -86.7000 300° West 394 453 19,700 -2,160 Descending FlightAware
08:42AM 41.1960 -86.7960 300° West 389 448 17,900 -2,520 Descending FlightAware
08:43AM 41.2330 -86.8830 300° West 387 445 16,200 -2,340 Descending FlightAware
08:43AM 41.2710 -86.9730 299° West 381 438 14,600 -2,220 Descending FlightAware
08:44AM 41.3010 -87.0450 299° West 375 432 13,300 -2,220 Descending FlightAware
08:45AM 41.3440 -87.1450 300° West 367 422 11,500 -1,740 Descending FlightAware
08:45AM 41.3840 -87.2150 307° West 359 413 10,700 -600 Descending FlightAware
08:46AM 41.4380 -87.2820 317° Northwest 354 407 10,700  Level FlightAware
08:47AM 41.4900 -87.3430 319° Northwest 355 409 10,700  Level FlightAware
08:48AM 41.5400 -87.4000 320° Northwest 355 409 10,700  Level FlightAware
08:48AM 41.5960 -87.4590 322° Northwest 356 410 10,700  Level FlightAware
08:49AM 41.6480 -87.5170 320° Northwest 357 411 10,700  Level FlightAware
08:50AM 41.6980 -87.5740 320° Northwest 358 412 10,700  Level FlightAware
08:50AM 41.7570 -87.6410 320° Northwest 360 414 10,700 -120 Level FlightAware
08:51AM 41.8070 -87.6970 320° Northwest 345 397 10,600 -480 Descending FlightAware
08:52AM 41.8540 -87.7580 316° Northwest 294 338 10,100 -1,200 Descending FlightAware
08:52AM 41.8770 -87.7940 311° West 292 336 9,200 -2,100 Descending FlightAware
08:52AM 41.8830 -87.8190 288° West 291 335 8,700 -1,620 Descending FlightAware
08:53AM 41.8850 -87.8730 273° West 286 329 8,000 -1,320 Descending FlightAware
08:53AM 41.8850 -87.9180 270° West 281 323 7,500 -1,080 Descending FlightAware
08:54AM 41.8850 -87.9420 270° West 277 319 7,300 -720 Descending FlightAware
08:54AM 41.8850 -87.9880 270° West 260 299 7,000 -780 Descending FlightAware
08:55AM 41.8870 -88.0330 273° West 245 282 6,600 -1,200 Descending FlightAware
08:55AM 41.8940 -88.0750 283° West 229 264 5,900 -1,560 Descending FlightAware
08:55AM 41.9000 -88.1080 284° West 223 257 5,200 -1,680 Descending FlightAware
08:56AM 41.9150 -88.1420 301° West 224 258 4,400 -1,500 Descending FlightAware
08:56AM 41.9310 -88.1480 344° North 207 238 4,100 -900 Descending FlightAware
08:57AM 41.9530 -88.1510 354° North 201 231 3,800 -900 Descending FlightAware
08:57AM 41.9730 -88.1310 37° Northeast 181 208 3,300 -900 Descending FlightAware
08:58AM 41.9690 -88.1070 103° East 182 209 3,000 -720 Descending FlightAware
08:58AM 41.9670 -88.0840 97° East 180 207 2,800 -1,020 Descending FlightAware
08:59AM 41.9690 -88.0390 87° East 165 190 2,000 -1,020 Descending FlightAware
08:59AM 41.9690 -88.0160 90° East 148 170 1,700 -840 Descending FlightAware
08:59AM 41.9690 -87.9920 90° East 147 169 1,300 -900 Descending FlightAware
09:00AM 41.9690 -87.9850 90° East 147 169 1,200 -840 Descending FlightAware
09:00AM 41.9690 -87.9380 90° East 143 165 500 -600 Descending FlightAware
09:01AM 41.9690 -87.9190 90° East 143 165 500 -120 Level FlightAware
09:01AM 41.9690 -87.9030 90° East 106 122 400 -240 Descending FlightAware